Time;durP1;ratioP1;P1;durP2;ratioP2;P2;SDS_P1;SDS_P2;PMS_P1;PMS_P2;Temp;Humidity;BMP_temperature;BMP_pressure;BME280_temperature;BME280_humidity;BME280_pressure;Samples;Min_cycle;Max_cycle;Signal;HPM_P1;HPM_P2
2023/05/06 00:00:21;;;;;;;10.95;4.35;;;;;;;15.52;74.37;100694.56;4136603;28;20042;-59
2023/05/06 00:02:24;;;;;;;8.98;3.80;;;;;;;15.50;74.17;100695.44;4142602;28;20054;-59
2023/05/06 00:04:27;;;;;;;11.30;4.15;;;;;;;15.52;73.94;100694.56;4142233;28;20478;-59
2023/05/06 00:06:32;;;;;;;8.70;3.55;;;;;;;15.49;74.25;100691.97;4136874;28;20041;-59
2023/05/06 00:08:35;;;;;;;9.25;2.78;;;;;;;15.41;74.67;100688.47;4135894;28;20050;-59
2023/05/06 00:10:37;;;;;;;8.40;3.60;;;;;;;15.40;74.82;100697.19;4134110;28;20049;-59
2023/05/06 00:12:42;;;;;;;6.32;3.47;;;;;;;15.39;74.12;100700.72;4130561;28;20050;-59
2023/05/06 00:14:45;;;;;;;8.50;3.42;;;;;;;15.39;74.52;100689.34;4122114;28;20397;-60
2023/05/06 00:16:49;;;;;;;6.70;3.28;;;;;;;15.41;74.51;100685.84;4129757;28;20037;-59
2023/05/06 00:18:52;;;;;;;9.45;3.70;;;;;;;15.43;74.95;100688.47;4140563;28;20096;-59
2023/05/06 00:20:55;;;;;;;10.05;3.67;;;;;;;15.44;75.18;100679.75;4136965;28;20042;-59
2023/05/06 00:22:59;;;;;;;11.57;4.07;;;;;;;15.43;75.13;100685.84;4133503;28;20104;-59
2023/05/06 00:25:02;;;;;;;8.60;3.87;;;;;;;15.41;74.70;100671.91;4131166;28;20039;-59
2023/05/06 00:27:05;;;;;;;7.45;4.18;;;;;;;15.40;75.14;100667.53;4141433;28;20029;-59
2023/05/06 00:29:09;;;;;;;6.82;3.67;;;;;;;15.42;75.22;100668.38;4129139;28;20113;-59
2023/05/06 00:31:12;;;;;;;9.20;3.78;;;;;;;15.35;75.19;100667.53;4157401;28;20034;-59
2023/05/06 00:33:15;;;;;;;8.25;3.40;;;;;;;15.36;75.25;100669.25;4138597;28;20076;-60
2023/05/06 00:35:18;;;;;;;8.90;4.00;;;;;;;15.38;75.06;100651.81;4122272;28;20049;-59
2023/05/06 00:37:21;;;;;;;5.93;3.20;;;;;;;15.40;75.30;100655.28;4119933;28;20043;-59
2023/05/06 00:39:24;;;;;;;8.93;3.45;;;;;;;15.40;74.58;100654.41;4137182;28;20050;-59
2023/05/06 00:41:30;;;;;;;7.93;3.35;;;;;;;15.34;74.82;100650.94;4147216;28;20045;-59
2023/05/06 00:43:33;;;;;;;14.95;3.90;;;;;;;15.34;74.88;100665.78;4127406;28;20105;-59
2023/05/06 00:45:38;;;;;;;10.45;4.30;;;;;;;15.31;74.73;100665.78;4156378;28;20033;-59
2023/05/06 00:47:42;;;;;;;9.13;3.70;;;;;;;15.32;75.26;100668.41;4121843;28;20131;-59
2023/05/06 00:49:46;;;;;;;10.60;3.83;;;;;;;15.34;75.51;100666.66;4146902;28;20520;-59
2023/05/06 00:51:50;;;;;;;11.95;4.47;;;;;;;15.34;75.33;100666.66;4115050;28;20038;-59
2023/05/06 00:53:53;;;;;;;9.10;3.80;;;;;;;15.33;75.29;100667.53;4123202;28;20043;-59
2023/05/06 00:55:56;;;;;;;7.88;3.08;;;;;;;15.34;75.28;100671.03;4133935;28;20027;-59
2023/05/06 00:57:59;;;;;;;10.63;3.85;;;;;;;15.36;75.46;100669.25;4121505;28;20042;-59
2023/05/06 01:00:02;;;;;;;9.32;3.40;;;;;;;15.38;75.21;100671.91;4119510;28;20416;-59
2023/05/06 01:02:07;;;;;;;7.05;3.60;;;;;;;15.33;75.19;100670.16;4098607;28;20581;-59
2023/05/06 01:04:11;;;;;;;10.38;4.10;;;;;;;15.32;75.00;100672.78;4148980;28;20041;-59
2023/05/06 01:06:24;;;;;;;11.07;4.00;;;;;;;15.25;74.72;100671.91;4137704;28;20113;-59
2023/05/06 01:08:32;;;;;;;14.75;4.25;;;;;;;15.19;74.88;100674.56;4117766;28;20043;-59
2023/05/06 01:10:42;;;;;;;11.88;4.00;;;;;;;15.16;75.02;100664.09;4142300;28;20042;-58
2023/05/06 01:12:53;;;;;;;7.60;3.40;;;;;;;15.18;74.52;100665.81;4121388;28;20050;-59
2023/05/06 01:15:05;;;;;;;7.28;3.70;;;;;;;15.19;74.72;100669.31;4124083;28;20047;-59
2023/05/06 01:17:12;;;;;;;9.45;3.90;;;;;;;15.15;74.54;100664.94;4149954;28;20038;-59
2023/05/06 01:19:29;;;;;;;7.35;3.58;;;;;;;15.13;74.29;100672.81;4150372;28;20045;-59
2023/05/06 01:21:34;;;;;;;8.13;3.55;;;;;;;15.09;75.14;100670.19;4143292;28;20042;-59
2023/05/06 01:23:58;;;;;;;8.85;3.03;;;;;;;15.08;75.21;100668.44;4138565;28;20096;-59
2023/05/06 01:26:00;;;;;;;8.20;3.38;;;;;;;15.05;74.68;100669.31;4109117;28;20121;-59
2023/05/06 01:28:03;;;;;;;6.82;3.40;;;;;;;15.06;74.62;100668.44;4117452;28;20103;-59
2023/05/06 01:30:07;;;;;;;7.43;3.65;;;;;;;15.06;75.24;100676.31;4134512;28;20042;-59
2023/05/06 01:32:25;;;;;;;6.40;2.97;;;;;;;15.03;74.71;100670.22;4143693;28;20038;-59
2023/05/06 01:34:35;;;;;;;6.80;3.63;;;;;;;14.99;74.17;100674.56;4123605;28;20046;-60
2023/05/06 01:36:45;;;;;;;7.60;4.07;;;;;;;15.03;73.72;100672.84;4152380;28;20052;-58
2023/05/06 01:38:55;;;;;;;11.85;3.90;;;;;;;15.06;73.56;100670.22;4128086;28;20108;-59
2023/05/06 01:41:01;;;;;;;5.95;3.75;;;;;;;14.95;73.54;100672.81;4116064;28;20122;-58
2023/05/06 01:43:06;;;;;;;7.18;3.00;;;;;;;14.87;74.40;100677.19;4126743;28;20031;-60
2023/05/06 01:45:13;;;;;;;7.07;3.50;;;;;;;14.82;73.80;100675.44;4123322;28;20035;-60
2023/05/06 01:47:17;;;;;;;4.95;3.40;;;;;;;14.82;74.09;100671.94;4110973;28;20045;-60
2023/05/06 01:49:23;;;;;;;6.43;4.05;;;;;;;14.81;74.70;100665.84;4150773;28;20049;-59
2023/05/06 01:51:25;;;;;;;4.95;3.28;;;;;;;14.78;74.29;100671.06;4115339;28;20083;-60
2023/05/06 01:53:28;;;;;;;6.32;3.42;;;;;;;14.77;74.24;100681.53;4142792;28;20037;-59
2023/05/06 01:55:31;;;;;;;5.15;3.10;;;;;;;14.76;74.79;100683.31;4124780;28;20046;-59
2023/05/06 01:57:36;;;;;;;6.43;3.70;;;;;;;14.74;74.03;100685.03;4122784;28;20046;-60
2023/05/06 01:59:38;;;;;;;7.32;3.60;;;;;;;14.67;74.33;100693.75;4149496;28;20101;-59
2023/05/06 02:01:41;;;;;;;5.00;3.20;;;;;;;14.62;73.67;100691.13;4130381;28;20097;-59
2023/05/06 02:03:44;;;;;;;5.63;3.35;;;;;;;14.59;74.35;100690.22;4130570;28;20545;-60
2023/05/06 02:05:47;;;;;;;5.80;3.53;;;;;;;14.59;75.03;100690.22;4143167;28;20411;-59
2023/05/06 02:07:50;;;;;;;6.57;3.45;;;;;;;14.59;74.40;100696.31;4129771;28;20121;-59
2023/05/06 02:09:54;;;;;;;6.68;3.28;;;;;;;14.59;74.01;100685.84;4147144;28;20033;-59
2023/05/06 02:11:57;;;;;;;6.10;2.85;;;;;;;14.60;74.56;100689.34;4119911;28;20262;-59
2023/05/06 02:14:01;;;;;;;4.38;3.20;;;;;;;14.57;74.79;100695.47;4131976;28;20038;-59
2023/05/06 02:16:08;;;;;;;6.65;3.58;;;;;;;14.57;74.35;100691.94;4120469;28;20031;-59
2023/05/06 02:18:11;;;;;;;10.43;3.60;;;;;;;14.55;73.99;100694.56;4131449;28;20035;-59
2023/05/06 02:20:14;;;;;;;7.95;3.55;;;;;;;14.51;74.51;100691.94;4152416;28;20046;-59
2023/05/06 02:22:17;;;;;;;5.00;3.45;;;;;;;14.48;74.28;100698.03;4116457;28;20039;-60
2023/05/06 02:24:20;;;;;;;5.45;3.65;;;;;;;14.47;74.13;100699.78;4128145;28;20104;-60
2023/05/06 02:26:23;;;;;;;7.03;3.80;;;;;;;14.47;75.19;100698.91;4125114;28;20049;-60
2023/05/06 02:28:26;;;;;;;5.88;3.35;;;;;;;14.47;74.51;100693.66;4124856;28;20074;-60
2023/05/06 02:30:31;;;;;;;8.40;4.15;;;;;;;14.44;74.63;100693.66;4152031;28;20092;-59
2023/05/06 02:32:34;;;;;;;6.22;3.30;;;;;;;14.43;74.15;100684.09;4118240;28;20054;-60
2023/05/06 02:34:37;;;;;;;5.57;3.15;;;;;;;14.37;75.12;100691.91;4115270;28;20050;-60
2023/05/06 02:36:40;;;;;;;5.53;3.38;;;;;;;14.31;75.22;100684.94;4138663;28;20090;-59
2023/05/06 02:38:43;;;;;;;6.90;4.15;;;;;;;14.30;75.43;100691.91;4125706;28;20042;-60
2023/05/06 02:40:46;;;;;;;5.93;3.17;;;;;;;14.30;75.30;100681.44;4123024;28;20121;-59
2023/05/06 02:42:49;;;;;;;7.65;3.88;;;;;;;14.27;75.24;100684.03;4122559;28;20475;-60
2023/05/06 02:44:52;;;;;;;7.25;3.97;;;;;;;14.34;74.17;100684.06;4123840;28;20043;-60
2023/05/06 02:46:56;;;;;;;6.10;3.83;;;;;;;14.27;74.06;100673.59;4132127;28;20061;-59
2023/05/06 02:48:59;;;;;;;5.70;3.40;;;;;;;14.20;73.77;100679.66;4109271;28;20081;-60
2023/05/06 02:51:02;;;;;;;6.32;3.38;;;;;;;14.17;74.01;100676.19;4140887;28;20520;-60
2023/05/06 02:53:05;;;;;;;7.97;4.10;;;;;;;14.16;74.52;100667.44;4113188;28;20717;-59
2023/05/06 02:55:08;;;;;;;5.35;3.67;;;;;;;14.15;74.20;100668.34;4135355;28;20043;-60
2023/05/06 02:57:11;;;;;;;4.20;3.30;;;;;;;14.17;74.05;100670.97;4114190;28;20038;-60
2023/05/06 02:59:14;;;;;;;5.32;3.08;;;;;;;14.16;73.98;100664.84;4117900;28;20063;-60
2023/05/06 03:01:17;;;;;;;6.30;3.70;;;;;;;14.17;73.98;100671.81;4101879;28;20563;-60
2023/05/06 03:03:22;;;;;;;6.70;3.53;;;;;;;14.14;73.53;100663.97;4131940;28;20108;-60
2023/05/06 03:05:25;;;;;;;5.68;3.78;;;;;;;14.11;74.20;100670.06;4134404;28;20044;-60
2023/05/06 03:07:28;;;;;;;5.65;3.55;;;;;;;14.09;74.13;100671.81;4145398;28;20037;-60
2023/05/06 03:09:31;;;;;;;7.60;3.85;;;;;;;14.07;74.34;100665.69;4152175;28;20045;-60
2023/05/06 03:11:35;;;;;;;4.85;4.07;;;;;;;14.13;73.99;100677.91;4125456;28;20049;-60
2023/05/06 03:13:39;;;;;;;7.50;4.35;;;;;;;14.10;73.98;100667.44;4154002;28;20136;-59
2023/05/06 03:15:42;;;;;;;5.47;3.47;;;;;;;14.11;73.96;100677.03;4118357;28;20077;-60
2023/05/06 03:17:46;;;;;;;5.78;4.03;;;;;;;14.08;74.28;100679.66;4127390;28;20035;-59
2023/05/06 03:19:50;;;;;;;7.88;4.47;;;;;;;14.06;74.13;100669.19;4130983;28;20038;-59
2023/05/06 03:21:55;;;;;;;6.60;4.72;;;;;;;14.07;73.67;100675.28;4124882;28;20060;-59
2023/05/06 03:23:58;;;;;;;7.18;4.72;;;;;;;13.98;73.74;100670.88;4144584;28;20038;-59
2023/05/06 03:26:03;;;;;;;5.65;3.80;;;;;;;13.94;74.55;100672.63;4153666;28;20133;-60
2023/05/06 03:28:06;;;;;;;5.95;3.83;;;;;;;13.95;73.92;100669.13;4118374;28;20448;-59
2023/05/06 03:30:11;;;;;;;6.75;4.10;;;;;;;13.89;74.09;100663.88;4126295;28;20061;-60
2023/05/06 03:32:15;;;;;;;8.02;4.72;;;;;;;13.87;74.23;100673.47;4149300;28;20060;-60
2023/05/06 03:34:19;;;;;;;9.27;4.80;;;;;;;13.84;74.32;100676.03;4109905;28;20050;-59
2023/05/06 03:36:24;;;;;;;7.32;4.20;;;;;;;13.82;73.60;100677.78;4154428;28;20664;-59
2023/05/06 03:38:28;;;;;;;5.10;3.60;;;;;;;13.78;74.51;100673.41;4119332;28;20062;-60
2023/05/06 03:40:36;;;;;;;9.23;3.58;;;;;;;13.79;74.61;100680.41;4118005;28;20047;-60
2023/05/06 03:42:39;;;;;;;7.10;3.63;;;;;;;13.80;74.63;100679.53;4113877;28;20562;-60
2023/05/06 03:44:42;;;;;;;7.15;3.58;;;;;;;13.80;74.57;100682.16;4128113;28;20077;-60
2023/05/06 03:46:45;;;;;;;5.60;3.60;;;;;;;13.79;74.63;100675.16;4145025;28;20037;-60
2023/05/06 03:48:48;;;;;;;6.35;3.70;;;;;;;13.80;74.32;100676.94;4124416;28;20524;-60
2023/05/06 03:50:52;;;;;;;5.50;4.38;;;;;;;13.79;75.00;100677.78;4123918;28;20031;-60
2023/05/06 03:52:57;;;;;;;7.38;4.72;;;;;;;13.80;73.99;100676.94;4121804;28;20066;-60
2023/05/06 03:55:02;;;;;;;6.40;3.63;;;;;;;13.80;74.30;100684.75;4115486;28;20512;-59
2023/05/06 03:57:06;;;;;;;10.70;4.50;;;;;;;13.80;74.52;100684.75;4113785;28;20460;-59
2023/05/06 03:59:09;;;;;;;7.93;5.05;;;;;;;13.77;74.26;100683.00;4118849;28;20042;-59
2023/05/06 04:01:12;;;;;;;6.50;4.70;;;;;;;13.75;74.75;100686.47;4156431;28;20116;-60
2023/05/06 04:03:15;;;;;;;6.40;4.30;;;;;;;13.76;74.12;100683.00;4106496;28;20043;-59
2023/05/06 04:05:24;;;;;;;9.20;4.65;;;;;;;13.75;74.34;100681.25;4121559;28;20547;-59
2023/05/06 04:07:27;;;;;;;6.00;4.05;;;;;;;13.75;74.07;100686.47;4151044;28;20136;-60
2023/05/06 04:09:33;;;;;;;6.32;4.57;;;;;;;13.70;74.01;100681.22;4132898;28;20038;-59
2023/05/06 04:11:40;;;;;;;6.30;4.57;;;;;;;13.67;73.71;100680.31;4122900;28;20046;-59
2023/05/06 04:13:46;;;;;;;5.82;4.00;;;;;;;13.65;73.96;100684.69;4108310;28;20077;-60
2023/05/06 04:15:52;;;;;;;5.57;4.25;;;;;;;13.62;74.39;100688.13;4158733;28;20048;-60
2023/05/06 04:18:01;;;;;;;6.30;4.50;;;;;;;13.65;74.09;100684.69;4123390;28;20042;-59
2023/05/06 04:20:05;;;;;;;6.50;4.05;;;;;;;13.67;74.36;100690.78;4119927;28;20045;-60
2023/05/06 04:22:09;;;;;;;5.28;4.22;;;;;;;13.68;74.06;100693.41;4117824;28;20060;-60
2023/05/06 04:24:12;;;;;;;6.40;4.15;;;;;;;13.70;74.59;100694.28;4127169;28;20093;-59
2023/05/06 04:26:17;;;;;;;4.57;3.83;;;;;;;13.71;74.18;100693.44;4129005;28;20065;-59
2023/05/06 04:28:21;;;;;;;7.65;4.45;;;;;;;13.75;74.77;100694.31;4134945;28;20046;-60
2023/05/06 04:30:26;;;;;;;5.50;4.32;;;;;;;13.75;75.04;100695.16;4121206;28;20049;-59
2023/05/06 04:32:29;;;;;;;5.93;4.72;;;;;;;13.75;74.96;100691.69;4117140;28;20056;-59
2023/05/06 04:34:35;;;;;;;6.13;4.65;;;;;;;13.75;74.89;100704.75;4149439;28;20136;-59
2023/05/06 04:36:38;;;;;;;6.40;4.18;;;;;;;13.74;75.16;100700.38;4116117;28;20046;-59
2023/05/06 04:39:09;;;;;;;7.20;4.70;;;;;;;13.75;75.22;100702.16;4107682;28;20077;-59
2023/05/06 04:41:14;;;;;;;7.78;5.10;;;;;;;13.74;75.25;100708.22;4131713;28;20061;-59
2023/05/06 04:43:18;;;;;;;8.95;6.22;;;;;;;13.78;75.06;100710.00;4151766;28;20093;-59
2023/05/06 04:45:23;;;;;;;9.20;5.85;;;;;;;13.82;74.57;100711.75;4104579;28;20528;-59
2023/05/06 04:47:27;;;;;;;8.73;6.38;;;;;;;13.86;74.98;100713.53;4130742;28;20408;-59
2023/05/06 04:49:30;;;;;;;8.98;6.38;;;;;;;13.86;75.21;100717.91;4112837;28;20074;-59
2023/05/06 04:51:33;;;;;;;9.60;6.60;;;;;;;13.85;75.48;100711.78;4137784;28;20073;-60
2023/05/06 04:53:37;;;;;;;8.02;6.97;;;;;;;13.86;75.90;100718.75;4155393;28;20083;-59
2023/05/06 04:55:40;;;;;;;9.00;6.30;;;;;;;13.88;75.47;100717.00;4118434;28;20043;-59
2023/05/06 04:57:43;;;;;;;7.30;5.63;;;;;;;13.91;75.91;100718.78;4142049;28;20539;-59
2023/05/06 04:59:47;;;;;;;10.07;6.03;;;;;;;13.94;75.56;100722.28;4133233;28;20169;-59
2023/05/06 05:01:51;;;;;;;9.10;6.30;;;;;;;13.95;75.59;100729.25;4137402;28;20041;-59
2023/05/06 05:03:55;;;;;;;6.75;5.38;;;;;;;13.98;75.66;100722.31;4127028;28;20482;-59
2023/05/06 05:05:58;;;;;;;7.75;5.07;;;;;;;14.01;75.01;100719.69;4118477;28;20082;-59
2023/05/06 05:08:02;;;;;;;9.07;5.80;;;;;;;14.04;74.96;100727.56;4123463;28;20078;-59
2023/05/06 05:10:09;;;;;;;7.65;5.75;;;;;;;14.05;75.45;100721.47;4127656;28;20125;-59
2023/05/06 05:12:13;;;;;;;7.88;5.75;;;;;;;14.07;75.49;100722.34;4119019;28;20069;-59
2023/05/06 05:14:20;;;;;;;9.25;5.47;;;;;;;14.12;75.58;100720.63;4112228;28;20054;-59
2023/05/06 05:16:25;;;;;;;7.63;5.32;;;;;;;14.17;74.93;100731.09;4120336;28;20129;-60
2023/05/06 05:18:28;;;;;;;8.50;5.75;;;;;;;14.20;75.99;100725.88;4175581;22;20124;-60
2023/05/06 05:20:37;;;;;;;7.18;6.05;;;;;;;14.21;75.73;100725.88;4154182;28;20132;-60
2023/05/06 05:22:42;;;;;;;10.93;6.65;;;;;;;14.24;75.85;100720.66;4119144;28;20145;-60
2023/05/06 05:24:45;;;;;;;7.05;6.07;;;;;;;14.31;75.85;100725.03;4114357;28;20050;-60
2023/05/06 05:26:48;;;;;;;8.93;6.20;;;;;;;14.37;75.62;100726.81;4126040;28;20088;-60
2023/05/06 05:28:52;;;;;;;8.33;5.90;;;;;;;14.41;75.62;100731.19;4107880;28;20063;-60
2023/05/06 05:30:54;;;;;;;9.15;5.93;;;;;;;14.47;75.92;100730.28;4121305;28;20347;-60
2023/05/06 05:32:59;;;;;;;9.82;6.38;;;;;;;14.52;76.01;100730.31;4125831;28;20035;-60
2023/05/06 05:35:02;;;;;;;9.70;7.07;;;;;;;14.55;75.34;100738.19;4138474;28;20070;-60
2023/05/06 05:37:05;;;;;;;7.85;5.50;;;;;;;14.57;75.43;100734.72;4113400;28;20118;-60
2023/05/06 05:39:09;;;;;;;8.33;6.37;;;;;;;14.62;75.88;100737.34;4115866;28;20034;-60
2023/05/06 05:41:17;;;;;;;8.65;6.55;;;;;;;14.68;76.08;100746.97;4124498;28;20301;-60
2023/05/06 05:43:21;;;;;;;7.93;6.47;;;;;;;14.74;76.01;100739.97;4125464;28;20378;-60
2023/05/06 05:45:25;;;;;;;10.30;7.15;;;;;;;14.80;75.57;100744.34;4122180;28;20436;-60
2023/05/06 05:47:28;;;;;;;8.18;7.32;;;;;;;14.83;76.08;100742.63;4118248;28;20137;-60
2023/05/06 05:49:33;;;;;;;8.38;7.47;;;;;;;14.88;75.09;100742.63;4117167;28;20047;-59
2023/05/06 05:51:36;;;;;;;10.75;7.03;;;;;;;14.95;75.43;100752.25;4121321;28;20038;-60
2023/05/06 05:53:41;;;;;;;8.35;7.13;;;;;;;15.03;75.21;100744.38;4125424;28;20117;-60
2023/05/06 05:55:44;;;;;;;10.00;7.88;;;;;;;15.12;75.18;100735.66;4137713;28;20409;-60
2023/05/06 05:57:46;;;;;;;11.98;7.60;;;;;;;15.18;74.91;100743.50;4113386;28;20041;-60
2023/05/06 05:59:51;;;;;;;9.10;7.30;;;;;;;15.24;75.12;100740.88;4119373;28;20512;-60
2023/05/06 06:01:54;;;;;;;10.30;6.50;;;;;;;15.32;75.12;100731.28;4114812;28;20073;-60
2023/05/06 06:03:57;;;;;;;10.43;6.72;;;;;;;15.40;74.98;100730.41;4109533;28;20327;-60
2023/05/06 06:06:02;;;;;;;7.05;5.65;;;;;;;15.47;74.36;100733.00;4119651;28;20054;-60
2023/05/06 06:08:05;;;;;;;8.48;6.03;;;;;;;15.52;74.99;100728.63;4117332;28;20528;-60
2023/05/06 06:10:08;;;;;;;7.07;5.95;;;;;;;15.62;74.39;100729.47;4123408;28;20098;-60
2023/05/06 06:12:11;;;;;;;7.20;5.97;;;;;;;15.70;73.81;100727.72;4134022;28;20072;-60
2023/05/06 06:14:15;;;;;;;6.23;5.27;;;;;;;15.79;73.45;100733.84;4122917;28;20133;-60
2023/05/06 06:16:19;;;;;;;9.07;6.40;;;;;;;15.81;73.65;100729.47;4124619;28;20298;-60
2023/05/06 06:18:23;;;;;;;10.60;6.15;;;;;;;15.86;73.60;100728.56;4121716;28;20046;-61
2023/05/06 06:20:26;;;;;;;8.75;6.82;;;;;;;15.90;73.64;100736.44;4116018;28;20047;-60
2023/05/06 06:22:30;;;;;;;8.85;6.93;;;;;;;15.96;74.13;100734.66;4132962;28;20489;-60
2023/05/06 06:24:34;;;;;;;6.47;5.25;;;;;;;16.04;73.71;100742.50;4120437;28;20046;-61
2023/05/06 06:26:37;;;;;;;8.23;5.55;;;;;;;16.12;73.38;100742.47;4142543;28;20384;-60
2023/05/06 06:28:40;;;;;;;8.93;6.40;;;;;;;16.16;73.25;100746.81;4119159;28;20066;-61
2023/05/06 06:30:43;;;;;;;8.50;5.65;;;;;;;16.21;73.44;100748.53;4122250;28;20046;-60
2023/05/06 06:32:50;;;;;;;7.90;5.97;;;;;;;16.29;73.47;100750.25;4115910;28;20515;-61
2023/05/06 06:34:53;;;;;;;7.50;5.40;;;;;;;16.35;72.89;100750.22;4123578;28;20583;-60
2023/05/06 06:36:56;;;;;;;8.15;4.75;;;;;;;16.40;72.66;100753.72;4118900;28;20054;-60
2023/05/06 06:39:00;;;;;;;8.50;5.50;;;;;;;16.50;72.28;100757.16;4113384;28;20094;-60
2023/05/06 06:41:04;;;;;;;7.03;5.75;;;;;;;16.45;72.07;100758.94;4128356;28;20035;-60
2023/05/06 06:43:07;;;;;;;7.68;4.95;;;;;;;16.46;71.62;100752.81;4137045;28;20049;-60
2023/05/06 06:45:29;;;;;;;8.77;5.55;;;;;;;16.50;72.03;100765.91;4136576;28;20090;-60
2023/05/06 06:47:32;;;;;;;7.95;5.05;;;;;;;16.56;72.32;100760.63;4136933;28;20038;-60
2023/05/06 06:49:35;;;;;;;9.20;5.85;;;;;;;16.53;71.76;100767.66;4125681;28;20096;-60
2023/05/06 06:51:38;;;;;;;7.95;4.75;;;;;;;16.59;71.98;100762.34;4120801;28;20428;-61
2023/05/06 06:53:41;;;;;;;6.82;4.82;;;;;;;16.66;71.94;100753.56;4138127;28;20400;-60
2023/05/06 06:55:46;;;;;;;9.02;5.90;;;;;;;16.64;71.79;100760.56;4130788;28;20104;-61
2023/05/06 06:57:48;;;;;;;9.45;4.82;;;;;;;16.65;71.73;100766.72;4125228;28;20042;-60
2023/05/06 06:59:52;;;;;;;9.38;5.63;;;;;;;16.65;71.93;100762.31;4128299;28;20042;-61
2023/05/06 07:01:55;;;;;;;6.37;4.70;;;;;;;16.70;71.72;100770.16;4106858;28;20035;-60
2023/05/06 07:03:58;;;;;;;7.20;4.95;;;;;;;16.77;71.40;100765.75;4136178;28;20073;-61
2023/05/06 07:06:01;;;;;;;6.88;5.70;;;;;;;16.76;70.94;100762.25;4131312;28;20451;-61
2023/05/06 07:08:03;;;;;;;9.48;5.32;;;;;;;16.83;70.02;100761.31;4118349;28;20087;-61
2023/05/06 07:10:08;;;;;;;6.05;4.72;;;;;;;16.92;70.34;100765.66;4131272;28;20085;-61
2023/05/06 07:12:12;;;;;;;7.97;4.07;;;;;;;17.02;69.75;100767.34;4137451;28;20465;-61
2023/05/06 07:14:15;;;;;;;7.68;4.60;;;;;;;17.12;69.19;100767.28;4140874;28;20042;-61
2023/05/06 07:16:17;;;;;;;8.10;4.95;;;;;;;17.19;68.93;100769.84;4139053;28;20053;-61
2023/05/06 07:18:20;;;;;;;7.57;4.90;;;;;;;17.20;68.24;100768.09;4103675;28;20075;-61
2023/05/06 07:20:23;;;;;;;6.53;4.22;;;;;;;17.20;67.89;100761.09;4130854;28;20408;-61
2023/05/06 07:22:27;;;;;;;7.78;4.97;;;;;;;17.25;67.58;100763.69;4126832;28;20034;-62
2023/05/06 07:24:30;;;;;;;6.45;4.40;;;;;;;17.36;67.43;100760.94;4142400;28;20100;-61
2023/05/06 07:26:35;;;;;;;6.63;4.80;;;;;;;17.35;67.09;100769.72;4115222;28;20053;-61
2023/05/06 07:28:39;;;;;;;9.02;4.70;;;;;;;17.30;66.80;100767.13;4137394;28;20258;-62
2023/05/06 07:30:42;;;;;;;7.88;4.85;;;;;;;17.38;66.45;100764.44;4128580;28;20043;-62
2023/05/06 07:32:45;;;;;;;6.13;4.10;;;;;;;17.43;66.51;100762.63;4124064;28;20034;-62
2023/05/06 07:34:48;;;;;;;7.50;4.60;;;;;;;17.45;66.78;100760.88;4144347;28;20128;-61
2023/05/06 07:36:51;;;;;;;7.38;4.53;;;;;;;17.43;66.18;100767.88;4127787;28;20042;-61
2023/05/06 07:38:54;;;;;;;6.18;4.07;;;;;;;17.56;66.11;100764.25;4134731;28;20042;-62
2023/05/06 07:40:56;;;;;;;6.10;4.10;;;;;;;17.66;64.95;100754.53;4116066;28;20081;-62
2023/05/06 07:42:59;;;;;;;6.80;3.72;;;;;;;17.78;65.37;100762.31;4114811;28;20042;-62
2023/05/06 07:45:04;;;;;;;6.40;3.53;;;;;;;17.81;65.70;100758.75;4119810;28;20139;-62
2023/05/06 07:47:07;;;;;;;5.35;3.45;;;;;;;17.82;65.20;100759.63;4129394;28;20089;-62
2023/05/06 07:49:10;;;;;;;5.32;2.67;;;;;;;17.96;65.25;100760.38;4133169;28;20149;-63
2023/05/06 07:51:13;;;;;;;5.88;3.78;;;;;;;18.06;64.47;100755.88;4129524;28;20030;-62
2023/05/06 07:53:16;;;;;;;7.25;3.85;;;;;;;18.16;63.95;100761.91;4128492;28;20567;-62
2023/05/06 07:55:19;;;;;;;7.13;3.78;;;;;;;18.31;63.50;100764.31;4135729;28;20060;-62
2023/05/06 07:57:21;;;;;;;8.15;4.18;;;;;;;18.42;62.40;100761.56;4107807;28;20480;-62
2023/05/06 07:59:24;;;;;;;4.95;3.03;;;;;;;18.36;62.96;100766.91;4140134;28;20049;-62
2023/05/06 08:01:29;;;;;;;4.50;2.78;;;;;;;18.26;62.61;100766.16;4115121;28;22275;-63
2023/05/06 08:03:31;;;;;;;11.32;4.00;;;;;;;18.34;61.94;100774.84;4130421;28;20046;-62
2023/05/06 08:05:35;;;;;;;5.22;2.83;;;;;;;18.18;62.71;100770.63;4120289;28;20484;-63
2023/05/06 08:07:37;;;;;;;6.15;3.10;;;;;;;18.12;63.02;100769.84;4121286;28;20501;-63
2023/05/06 08:09:40;;;;;;;6.15;3.03;;;;;;;18.17;62.38;100769.78;4139769;28;20037;-62
2023/05/06 08:11:43;;;;;;;4.32;2.55;;;;;;;18.29;62.40;100768.75;4119955;28;20404;-63
2023/05/06 08:13:46;;;;;;;4.70;2.40;;;;;;;18.38;62.91;100765.97;4126860;28;20092;-62
2023/05/06 08:15:50;;;;;;;5.45;2.60;;;;;;;18.52;62.52;100768.44;4133345;28;20510;-62
2023/05/06 08:17:55;;;;;;;6.45;2.53;;;;;;;18.46;61.70;100777.28;4131187;28;20042;-62
2023/05/06 08:19:59;;;;;;;3.45;2.40;;;;;;;18.61;61.29;100777.97;4128780;28;20823;-64
2023/05/06 08:22:02;;;;;;;3.25;2.17;;;;;;;18.71;61.04;100782.22;4136552;28;20084;-65
2023/05/06 08:24:05;;;;;;;4.35;2.20;;;;;;;18.79;60.88;100779.47;4134403;28;20046;-65
2023/05/06 08:26:07;;;;;;;3.60;1.65;;;;;;;18.92;60.99;100788.09;4121890;28;20094;-66
2023/05/06 08:28:10;;;;;;;4.57;2.13;;;;;;;19.03;60.24;100783.53;4126200;28;20398;-69
2023/05/06 08:30:14;;;;;;;3.40;1.95;;;;;;;18.91;58.99;100787.25;4129628;28;20026;-65
2023/05/06 08:32:17;;;;;;;4.50;2.40;;;;;;;18.78;59.43;100786.50;4131705;28;20058;-60
2023/05/06 08:34:21;;;;;;;3.03;1.45;;;;;;;18.71;59.39;100779.59;4113767;28;20038;-63
2023/05/06 08:36:24;;;;;;;2.78;1.73;;;;;;;18.69;58.97;100784.00;4143044;28;20042;-65
2023/05/06 08:38:27;;;;;;;3.67;1.70;;;;;;;18.90;59.55;100784.63;4133523;28;20069;-62
2023/05/06 08:40:32;;;;;;;3.22;1.80;;;;;;;19.01;59.24;100780.03;4101202;28;20039;-63
2023/05/06 08:42:37;;;;;;;6.18;2.05;;;;;;;19.09;58.40;100782.56;4115558;28;20046;-64
2023/05/06 08:44:43;;;;;;;5.07;1.67;;;;;;;19.17;57.85;100778.03;4112788;28;20114;-65
2023/05/06 08:46:46;;;;;;;7.05;1.90;;;;;;;19.00;56.99;100781.81;4123362;28;20100;-65
2023/05/06 08:48:49;;;;;;;4.05;1.73;;;;;;;18.98;57.31;100783.63;4123191;28;20050;-65
2023/05/06 08:50:57;;;;;;;2.33;1.50;;;;;;;19.20;57.40;100772.69;4139549;28;20449;-63
2023/05/06 08:53:01;;;;;;;2.45;1.50;;;;;;;19.38;57.92;100782.09;4116988;28;20578;-72
2023/05/06 08:55:04;;;;;;;3.85;1.67;;;;;;;19.48;57.60;100777.53;4118337;28;20137;-62
2023/05/06 08:57:11;;;;;;;2.60;1.27;;;;;;;19.70;57.25;100772.75;4130187;28;20117;-61
2023/05/06 08:59:15;;;;;;;2.10;1.48;;;;;;;19.79;56.32;100772.59;4127666;28;20039;-61
2023/05/06 09:01:18;;;;;;;2.53;1.43;;;;;;;19.86;55.82;100771.56;4133713;28;20468;-61
2023/05/06 09:03:20;;;;;;;6.90;1.77;;;;;;;19.97;54.89;100765.22;4137509;28;20563;-62
2023/05/06 09:05:23;;;;;;;3.03;1.52;;;;;;;19.98;55.11;100766.97;4136232;28;20133;-62
2023/05/06 09:07:28;;;;;;;1.55;1.27;;;;;;;20.09;55.59;100758.81;4135024;28;20050;-62
2023/05/06 09:09:30;;;;;;;3.30;1.30;;;;;;;20.15;55.54;100756.94;4114961;28;20491;-62
2023/05/06 09:11:33;;;;;;;2.42;1.25;;;;;;;20.17;53.52;100757.75;4131613;28;20031;-61
2023/05/06 09:13:36;;;;;;;1.35;1.08;;;;;;;19.98;53.11;100757.28;4143254;28;20450;-61
2023/05/06 09:15:39;;;;;;;1.85;1.00;;;;;;;19.95;53.27;100759.13;4127950;28;20038;-61
2023/05/06 09:17:42;;;;;;;2.03;0.90;;;;;;;20.02;53.01;100753.66;4112646;28;20049;-60
2023/05/06 09:19:45;;;;;;;1.98;0.98;;;;;;;20.05;52.93;100755.38;4132812;28;20057;-61
2023/05/06 09:21:49;;;;;;;1.88;1.27;;;;;;;20.23;52.10;100752.34;4133757;28;20057;-61
2023/05/06 09:23:53;;;;;;;3.22;1.38;;;;;;;20.23;53.09;100747.06;4129992;28;20050;-62
2023/05/06 09:25:57;;;;;;;2.63;0.98;;;;;;;20.35;53.13;100759.13;4118286;28;20050;-61
2023/05/06 09:28:07;;;;;;;2.83;1.13;;;;;;;20.28;52.61;100759.31;4122238;28;20517;-62
2023/05/06 09:30:11;;;;;;;2.05;1.20;;;;;;;20.35;53.01;100760.91;4135169;28;20570;-61
2023/05/06 09:32:14;;;;;;;2.05;1.15;;;;;;;20.50;53.48;100759.69;4121535;28;20034;-62
2023/05/06 09:34:18;;;;;;;4.10;1.05;;;;;;;20.67;53.10;100754.94;4135605;28;20037;-62
2023/05/06 09:36:22;;;;;;;2.42;1.08;;;;;;;20.96;49.26;100753.41;4129779;28;20050;-62